Terminal Aerodrome Forecast
Issued by NWS

Home | Current Version | Previous Version | Text Only | Print | Product List | Glossary On
Versions: 1 2 3 4 5 6 7 8 9 10 11 12 13 14 15 16 17
000
FTUS43 KICT 211736
TAFCNU
TAF
KCNU 211736Z 2118/2218 19010KT P6SM FEW040 SCT250
     FM220800 20008KT 5SM TSRA SCT025CB BKN050
     FM221500 26005KT P6SM BKN080=

USA.gov is the U.S. government's official web portal to all federal, state and local government web resources and services.